createdAt,value
2023-03-13T00:03:10.969Z,1.40
2023-03-13T00:08:14.618Z,1.30
2023-03-13T00:13:19.178Z,1.52
2023-03-13T00:18:23.765Z,1.90
2023-03-13T00:23:26.964Z,1.67
2023-03-13T00:28:32.641Z,1.50
2023-03-13T00:33:38.831Z,1.63
2023-03-13T00:38:42.407Z,1.80
2023-03-13T00:43:46.221Z,1.60
2023-03-13T00:48:51.842Z,1.73
2023-03-13T00:53:55.534Z,1.48
2023-03-13T00:59:00.947Z,1.90
2023-03-13T01:04:07.365Z,1.90
2023-03-13T01:09:12.729Z,1.17
2023-03-13T01:14:20.333Z,1.60
2023-03-13T01:19:25.130Z,1.60
2023-03-13T01:24:28.403Z,1.63
2023-03-13T01:29:31.628Z,1.35
2023-03-13T01:34:36.750Z,1.38
2023-03-13T01:39:40.132Z,1.73
2023-03-13T01:44:53.629Z,1.75
2023-03-13T01:49:58.488Z,1.55
2023-03-13T01:55:06.507Z,1.92
2023-03-13T02:00:16.439Z,1.83
2023-03-13T02:05:24.356Z,2.00
2023-03-13T02:10:29.579Z,2.05
2023-03-13T02:15:32.958Z,1.50
2023-03-13T02:20:40.824Z,1.98
2023-03-13T02:25:48.149Z,1.80
2023-03-13T02:30:55.455Z,1.88
2023-03-13T02:36:00.715Z,1.70
2023-03-13T02:41:07.469Z,2.03
2023-03-13T02:46:13.191Z,2.75
2023-03-13T02:51:21.676Z,1.67
2023-03-13T02:56:28.431Z,2.00
2023-03-13T03:01:31.810Z,1.83
2023-03-13T03:06:35.085Z,2.55
2023-03-13T03:11:39.905Z,2.15
2023-03-13T03:16:43.857Z,2.03
2023-03-13T03:21:49.615Z,2.13
2023-03-13T03:26:54.358Z,2.35
2023-03-13T03:31:58.055Z,2.40
2023-03-13T03:37:01.383Z,2.47
2023-03-13T03:42:06.854Z,3.53
2023-03-13T03:47:10.214Z,3.55
2023-03-13T03:52:13.520Z,3.30
2023-03-13T03:57:18.203Z,2.80
2023-03-13T04:02:21.692Z,2.50
2023-03-13T04:07:25.052Z,1.98
2023-03-13T04:12:29.801Z,2.30
2023-03-13T04:17:33.605Z,1.98
2023-03-13T04:22:36.908Z,1.92
2023-03-13T04:27:41.540Z,2.00
2023-03-13T04:32:44.790Z,1.75
2023-03-13T04:37:48.550Z,2.47
2023-03-13T04:42:53.256Z,1.75
2023-03-13T04:47:56.622Z,2.70
2023-03-13T04:52:59.984Z,2.08
2023-03-13T04:58:04.826Z,2.42
2023-03-13T05:03:08.263Z,2.42
2023-03-13T05:08:11.887Z,2.35
2023-03-13T05:13:16.520Z,2.10
2023-03-13T05:18:19.904Z,1.90
2023-03-13T05:23:23.435Z,2.10
2023-03-13T05:28:28.518Z,1.90
2023-03-13T05:33:31.796Z,1.90
2023-03-13T05:38:35.178Z,1.60
2023-03-13T05:43:39.949Z,1.92
2023-03-13T05:48:45.649Z,2.00
2023-03-13T05:53:49.068Z,2.35
2023-03-13T05:58:53.938Z,2.33
2023-03-13T06:03:57.332Z,2.10
2023-03-13T06:09:00.921Z,2.28
2023-03-13T06:14:05.566Z,2.13
2023-03-13T06:19:08.738Z,1.70
2023-03-13T06:24:12.073Z,1.85
2023-03-13T06:29:17.039Z,1.83
2023-03-13T06:34:20.406Z,1.80
2023-03-13T06:39:23.682Z,2.55
2023-03-13T06:44:28.678Z,2.00
2023-03-13T06:49:32.504Z,1.70
2023-03-13T06:54:35.959Z,1.73
2023-03-13T06:59:40.783Z,2.17
2023-03-13T07:04:45.297Z,2.13
2023-03-13T07:09:48.769Z,1.88
2023-03-13T07:14:53.831Z,2.15
2023-03-13T07:19:57.294Z,2.60
2023-03-13T07:25:00.584Z,2.95
2023-03-13T07:30:06.044Z,2.00
2023-03-13T07:35:09.704Z,2.30
2023-03-13T07:40:13.865Z,1.35
2023-03-13T07:45:18.759Z,1.65
2023-03-13T07:50:22.147Z,1.63
2023-03-13T07:55:25.653Z,1.55
2023-03-13T08:00:30.331Z,1.40
2023-03-13T08:05:33.579Z,1.98
2023-03-13T08:10:37.337Z,1.52
2023-03-13T08:15:42.096Z,2.28
2023-03-13T08:20:45.759Z,1.75
2023-03-13T08:25:49.361Z,1.48
2023-03-13T08:30:54.202Z,1.83
2023-03-13T08:35:57.561Z,1.75
2023-03-13T08:41:00.943Z,1.80
2023-03-13T08:46:05.996Z,1.90
2023-03-13T08:51:12.041Z,2.10
2023-03-13T08:56:16.989Z,1.92
2023-03-13T09:01:23.016Z,1.85
2023-03-13T09:06:26.394Z,2.30
2023-03-13T09:11:30.438Z,1.77
2023-03-13T09:16:36.207Z,1.63
2023-03-13T09:21:39.652Z,1.98
2023-03-13T09:26:59.971Z,2.00
2023-03-13T09:32:05.494Z,2.33
2023-03-13T09:37:09.048Z,2.10
2023-03-13T09:42:17.953Z,2.17
2023-03-13T09:47:27.877Z,2.13
2023-03-13T09:52:36.540Z,1.90
2023-03-13T09:57:54.369Z,1.60
2023-03-13T10:03:04.482Z,1.65
2023-03-13T10:08:17.574Z,1.85
2023-03-13T10:18:28.771Z,1.98
2023-03-13T10:23:40.427Z,2.40
2023-03-13T10:28:43.825Z,2.22
2023-03-13T10:33:48.576Z,2.05
2023-03-13T10:38:53.397Z,1.90
2023-03-13T10:44:01.810Z,2.17
2023-03-13T10:49:16.634Z,1.98
2023-03-13T10:54:25.483Z,1.70
2023-03-13T10:59:29.256Z,1.58
2023-03-13T11:04:37.654Z,1.65
2023-03-13T11:09:41.087Z,1.90
2023-03-13T11:14:46.660Z,2.05
2023-03-13T11:20:05.818Z,1.63
2023-03-13T11:25:22.121Z,1.60
2023-03-13T11:30:42.602Z,1.80
2023-03-13T11:35:51.282Z,1.83
2023-03-13T11:41:04.036Z,1.85
2023-03-13T11:46:23.316Z,1.92
2023-03-13T11:51:35.006Z,1.80
2023-03-13T11:56:44.522Z,2.50
2023-03-13T12:01:52.832Z,1.63
2023-03-13T12:07:04.888Z,1.98
2023-03-13T12:12:19.888Z,2.05
2023-03-13T12:17:33.555Z,2.10
2023-03-13T12:22:46.239Z,1.88
2023-03-13T12:27:54.130Z,2.22
2023-03-13T12:33:04.804Z,2.10
2023-03-13T12:38:16.726Z,2.40
2023-03-13T12:43:23.333Z,1.75
2023-03-13T12:48:53.773Z,2.05
2023-03-13T12:54:22.083Z,1.70
2023-03-13T12:59:31.621Z,1.70
2023-03-13T13:04:43.619Z,1.52
2023-03-13T13:10:05.190Z,2.30
2023-03-13T13:15:20.442Z,3.25
2023-03-13T13:20:37.780Z,2.30
2023-03-13T13:25:42.955Z,1.50
2023-03-13T13:30:46.490Z,1.50
2023-03-13T13:36:29.759Z,1.70
2023-03-13T13:41:39.016Z,1.77
2023-03-13T13:46:46.481Z,1.55
2023-03-13T13:52:38.654Z,2.28
2023-03-13T13:57:44.295Z,2.58
2023-03-13T14:02:51.350Z,2.17
2023-03-13T14:08:00.327Z,2.03
2023-03-13T14:13:13.139Z,1.58
2023-03-13T14:18:24.398Z,2.20
2023-03-13T14:23:42.294Z,1.75
2023-03-13T14:28:49.616Z,1.83
2023-03-13T14:33:52.988Z,1.90
2023-03-13T14:38:57.862Z,1.85
2023-03-13T14:44:07.862Z,1.92
2023-03-13T14:49:18.107Z,1.90
2023-03-13T14:54:30.566Z,2.10
2023-03-13T14:59:35.266Z,2.38
2023-03-13T15:04:52.535Z,2.33
2023-03-13T15:09:55.920Z,2.17
2023-03-13T15:15:00.673Z,1.92
2023-03-13T15:20:06.218Z,2.40
2023-03-13T15:25:17.882Z,3.90
2023-03-13T15:30:24.368Z,2.08
2023-03-13T15:35:30.142Z,1.90
2023-03-13T15:40:33.361Z,2.90
2023-03-13T15:45:40.351Z,2.63
2023-03-13T15:50:43.774Z,2.83
2023-03-13T15:55:48.111Z,2.80
2023-03-13T16:00:54.027Z,3.05
2023-03-13T16:05:58.506Z,3.10
2023-03-13T16:11:01.798Z,4.30
2023-03-13T16:16:18.745Z,3.58
2023-03-13T16:21:24.089Z,3.78
2023-03-13T16:26:30.183Z,4.40
2023-03-13T16:31:35.190Z,6.35
2023-03-13T16:36:38.833Z,6.97
2023-03-13T16:41:42.290Z,12.90
2023-03-13T16:47:02.743Z,7.55
2023-03-13T16:52:11.440Z,7.32
2023-03-13T16:57:17.492Z,7.00
2023-03-13T17:02:22.497Z,5.13
2023-03-13T17:07:29.342Z,4.82
2023-03-13T17:12:32.537Z,5.47
2023-03-13T17:17:37.581Z,3.80
2023-03-13T17:22:41.188Z,3.05
2023-03-13T17:27:47.616Z,4.15
2023-03-13T17:32:53.163Z,3.72
2023-03-13T17:37:56.998Z,4.30
2023-03-13T17:43:00.325Z,5.03
2023-03-13T17:48:05.814Z,4.57
2023-03-13T17:53:09.251Z,4.97
2023-03-13T17:58:12.738Z,5.47
2023-03-13T18:03:17.418Z,4.80
2023-03-13T18:08:20.810Z,5.30
2023-03-13T18:13:24.063Z,4.07
2023-03-13T18:18:28.824Z,5.13
2023-03-13T18:23:32.174Z,3.70
2023-03-13T18:28:35.471Z,4.38
2023-03-13T18:33:41.792Z,4.10
2023-03-13T18:38:46.253Z,3.85
2023-03-13T18:43:49.914Z,4.75
2023-03-13T18:48:55.740Z,3.67
2023-03-13T18:53:59.536Z,3.30
2023-03-13T18:59:03.000Z,3.58
2023-03-13T19:04:08.991Z,4.28
2023-03-13T19:09:41.240Z,4.85
2023-03-13T19:14:39.303Z,5.00
2023-03-13T19:19:44.109Z,4.50
2023-03-13T19:24:47.483Z,4.85
2023-03-13T19:29:50.835Z,4.25
2023-03-13T19:34:55.495Z,4.85
2023-03-13T19:39:58.653Z,4.07
2023-03-13T19:45:02.021Z,4.30
2023-03-13T19:50:14.157Z,4.13
2023-03-13T19:55:17.772Z,4.43
2023-03-13T20:00:22.972Z,3.42
2023-03-13T20:05:28.497Z,2.65
2023-03-13T20:10:31.767Z,3.78
2023-03-13T20:15:34.995Z,2.80
2023-03-13T20:20:39.626Z,2.95
2023-03-13T20:25:43.056Z,3.20
2023-03-13T20:30:48.567Z,3.45
2023-03-13T20:35:58.393Z,3.20
2023-03-13T20:41:02.285Z,2.75
2023-03-13T20:46:07.234Z,3.55
2023-03-13T20:51:12.171Z,4.88
2023-03-13T20:56:15.576Z,3.65
2023-03-13T21:01:19.746Z,3.03
2023-03-13T21:06:24.672Z,3.53
2023-03-13T21:11:27.930Z,3.20
2023-03-13T21:16:31.393Z,2.50
2023-03-13T21:21:36.261Z,3.13
2023-03-13T21:26:39.712Z,3.22
2023-03-13T21:31:42.966Z,3.00
2023-03-13T21:36:47.629Z,2.90
2023-03-13T21:41:50.943Z,2.70
2023-03-13T21:46:55.544Z,2.50
2023-03-13T21:52:00.359Z,1.95
2023-03-13T21:57:03.628Z,2.78
2023-03-13T22:02:07.159Z,2.88
2023-03-13T22:07:11.962Z,2.67
2023-03-13T22:12:15.266Z,2.50
2023-03-13T22:17:19.840Z,3.20
2023-03-13T22:22:24.657Z,2.65
2023-03-13T22:27:27.823Z,3.17
2023-03-13T22:32:31.081Z,2.63
2023-03-13T22:37:35.814Z,3.22
2023-03-13T22:42:39.238Z,2.97
2023-03-13T22:47:42.669Z,2.97
2023-03-13T22:52:47.687Z,3.30
2023-03-13T22:57:51.174Z,2.72
2023-03-13T23:02:55.090Z,3.00
2023-03-13T23:07:59.759Z,2.75
2023-03-13T23:13:03.055Z,2.65
2023-03-13T23:18:08.788Z,2.53
2023-03-13T23:23:13.441Z,2.25
2023-03-13T23:28:16.716Z,2.70
2023-03-13T23:33:20.191Z,2.17
2023-03-13T23:38:26.546Z,2.25
2023-03-13T23:43:29.968Z,1.98
2023-03-13T23:48:33.737Z,2.15
2023-03-13T23:53:39.432Z,2.13
2023-03-13T23:58:42.989Z,2.45
